Liberty, West Virginia
Current Conditions -  °F | °C
As of 11:54 AM on Thursday 30 Oct 2014 (Local Time) from KCRW Reporting Station
Overcast Overcast  
Wind Chill: 47°   Ceiling: 4400
Heat Index: 47°   Visibility: 10mi
Dew Point: 35°   Wind: 0mph
Humidity: 63%   Direction: NA
Pressure: 30.15"   Gusts: NA
Location:  38.6°N, 81.71°W
Report Text: KCRW 301554Z 00000KT 10SM SCT024 OVC044 08/02 A3015 RMK AO2 SLP211 T00830017
Loading
Personal Weather Stations






























Interactive Weather Map New forecast layout! Learn more

10-Day Weather Forecast

Advertisements
Track Severe Weather on mobile